Time;durP1;ratioP1;P1;durP2;ratioP2;P2;SDS_P1;SDS_P2;PMS_P1;PMS_P2;Temp;Humidity;BMP_temperature;BMP_pressure;BME280_temperature;BME280_humidity;BME280_pressure;Samples;Min_cycle;Max_cycle;Signal;HPM_P1;HPM_P2
2022/10/20 00:01:36;;;;;;;;;12.00;12.00;;;;;19.08;72.04;100706.06;5121388;27;45255;-67
2022/10/20 00:04:02;;;;;;;;;15.67;12.33;;;;;19.09;72.34;100707.81;5127095;27;45600;-66
2022/10/20 00:06:30;;;;;;;;;9.00;8.00;;;;;18.93;72.33;100694.44;5125975;27;45020;-66
2022/10/20 00:08:57;;;;;;;;;12.67;12.00;;;;;19.08;72.27;100706.94;5128017;27;45046;-67
2022/10/20 00:11:24;;;;;;;;;16.00;12.00;;;;;19.13;72.13;100721.34;5129056;27;45403;-67
2022/10/20 00:13:51;;;;;;;;;15.00;12.33;;;;;19.13;72.02;100721.34;5127692;27;45729;-67
2022/10/20 00:16:17;;;;;;;;;11.00;10.67;;;;;19.15;71.98;100713.19;5128320;27;45041;-67
2022/10/20 00:18:43;;;;;;;;;15.00;12.67;;;;;19.16;71.97;100715.00;5111194;27;45244;-66
2022/10/20 00:21:14;;;;;;;;;12.67;12.33;;;;;19.13;71.81;100717.72;5125171;27;45349;-68
2022/10/20 00:23:40;;;;;;;;;12.67;12.33;;;;;19.17;71.63;100708.66;5119946;27;46171;-67
2022/10/20 00:26:10;;;;;;;;;15.33;11.00;;;;;19.16;71.96;100715.00;5125448;27;45146;-67
2022/10/20 00:28:35;;;;;;;;;13.67;10.67;;;;;19.13;72.01;100712.31;5124348;27;45182;-67
2022/10/20 00:31:02;;;;;;;;;10.67;10.67;;;;;19.09;71.99;100697.91;5123372;27;44999;-68
2022/10/20 00:33:28;;;;;;;;;12.67;11.00;;;;;19.10;71.92;100694.28;5127493;27;45720;-67
2022/10/20 00:35:53;;;;;;;;;12.33;12.33;;;;;19.14;71.98;100697.88;5127789;27;45310;-66
2022/10/20 00:38:18;;;;;;;;;15.00;10.33;;;;;19.13;72.15;100696.97;5130857;27;45601;-68
2022/10/20 00:40:44;;;;;;;;;16.00;13.67;;;;;19.13;71.76;100693.34;5130826;27;45427;-67
2022/10/20 00:43:14;;;;;;;;;9.00;7.67;;;;;19.19;71.82;100704.16;5105446;27;51407;-67
2022/10/20 00:45:41;;;;;;;;;9.67;9.33;;;;;18.94;71.61;100652.94;5123482;27;45333;-66
2022/10/20 00:48:17;;;;;;;;;11.33;10.00;;;;;19.18;71.53;100679.78;5125144;27;45166;-66
2022/10/20 00:50:48;;;;;;;;;13.33;11.67;;;;;19.24;71.45;100690.56;5130218;27;45239;-68
2022/10/20 00:53:18;;;;;;;;;10.33;10.33;;;;;19.24;71.45;100685.16;5128315;27;47139;-66
2022/10/20 00:55:48;;;;;;;;;15.67;12.00;;;;;19.25;71.34;100689.63;5131784;27;45253;-67
2022/10/20 00:58:13;;;;;;;;;11.67;10.33;;;;;19.26;71.48;100686.91;5101018;27;45147;-66
2022/10/20 01:00:41;;;;;;;;;11.33;10.33;;;;;19.28;71.23;100682.34;5124334;27;45027;-66
2022/10/20 01:03:15;;;;;;;;;11.33;11.33;;;;;19.28;71.39;100693.19;5122031;27;45431;-68
2022/10/20 01:05:41;;;;;;;;;14.67;10.33;;;;;19.29;71.60;100689.59;5124196;27;45527;-66
2022/10/20 01:08:06;;;;;;;;;13.67;11.00;;;;;19.30;71.20;100672.44;5124988;27;45180;-66
2022/10/20 01:10:40;;;;;;;;;20.67;16.00;;;;;19.31;71.04;100671.50;5128010;27;45353;-67
2022/10/20 01:13:15;;;;;;;;;22.33;22.33;;;;;19.30;71.20;100669.72;5127271;27;46279;-67
2022/10/20 01:16:03;;;;;;;;;13.67;13.00;;;;;19.31;71.06;100678.72;5111036;27;45177;-66
2022/10/20 01:18:57;;;;;;;;;15.50;11.50;;;;;19.29;71.25;100677.88;5128835;27;45063;-67
2022/10/20 01:21:37;;;;;;;;;11.00;9.33;;;;;19.26;71.25;100684.19;5123958;27;44908;-66
2022/10/20 01:24:31;;;;;;;;;12.00;10.67;;;;;19.22;71.24;100685.16;5119378;27;45816;-66
2022/10/20 01:27:18;;;;;;;;;10.33;10.33;;;;;19.21;71.61;100679.75;5123112;27;45605;-67
2022/10/20 01:29:47;;;;;;;;;13.33;11.67;;;;;19.20;71.21;100681.53;5113057;27;44917;-66
2022/10/20 01:32:30;;;;;;;;;11.00;10.33;;;;;19.09;71.65;100691.56;5124054;27;45126;-66
2022/10/20 01:35:07;;;;;;;;;12.00;12.00;;;;;19.00;71.88;100703.41;5127453;27;45088;-66
2022/10/20 01:37:41;;;;;;;;;13.67;9.67;;;;;18.92;72.46;100692.66;5110970;27;45157;-67
2022/10/20 01:40:23;;;;;;;;;14.33;11.33;;;;;18.90;72.31;100689.06;5129576;27;45041;-67
2022/10/20 01:42:52;;;;;;;;;14.67;12.33;;;;;18.76;73.01;100681.03;5109516;27;45013;-66
2022/10/20 01:45:22;;;;;;;;;12.00;10.00;;;;;18.67;73.17;100662.16;5111893;27;45314;-67
2022/10/20 01:47:50;;;;;;;;;13.67;12.00;;;;;18.83;72.84;100708.97;5125411;27;45071;-68
2022/10/20 01:50:18;;;;;;;;;10.67;10.67;;;;;18.83;73.14;100735.13;5129580;27;45017;-66
2022/10/20 01:52:43;;;;;;;;;16.67;14.33;;;;;18.83;73.18;100746.88;5130669;27;44963;-67
2022/10/20 01:55:15;;;;;;;;;9.67;9.67;;;;;18.83;73.16;100743.25;5125144;27;47800;-66
2022/10/20 01:57:57;;;;;;;;;17.67;12.00;;;;;18.75;73.49;100743.28;5117715;27;45057;-67
2022/10/20 02:00:23;;;;;;;;;12.00;11.00;;;;;18.73;73.49;100742.41;5089982;27;45175;-67
2022/10/20 02:03:33;;;;;;;;;10.33;10.33;;;;;18.75;73.56;100740.59;5095290;27;45493;-68
2022/10/20 02:06:23;;;;;;;;;10.33;10.33;;;;;18.75;73.32;100709.00;5072579;27;45883;-66
2022/10/20 02:08:53;;;;;;;;;16.33;11.67;;;;;18.76;73.27;100709.91;5109338;27;45075;-66
2022/10/20 02:11:38;;;;;;;;;13.00;12.00;;;;;18.78;73.31;100698.16;5124582;27;45430;-67
2022/10/20 02:14:06;;;;;;;;;12.00;10.67;;;;;18.78;73.33;100681.00;5124286;27;45255;-66
2022/10/20 02:16:44;;;;;;;;;10.67;10.00;;;;;18.65;73.52;100660.38;5128313;27;45834;-67
2022/10/20 02:19:12;;;;;;;;;13.33;11.33;;;;;18.79;73.64;100677.38;5128658;27;45277;-67
2022/10/20 02:21:38;;;;;;;;;11.33;9.00;;;;;18.64;73.91;100634.22;5130559;27;45055;-67
2022/10/20 02:24:06;;;;;;;;;10.33;9.00;;;;;18.76;74.17;100635.00;5130440;27;45260;-67
2022/10/20 02:26:34;;;;;;;;;13.00;9.00;;;;;18.74;74.62;100619.69;5117855;27;45145;-68
2022/10/20 02:29:05;;;;;;;;;10.67;9.67;;;;;18.54;74.93;100612.63;5122644;27;44957;-66
2022/10/20 02:31:30;;;;;;;;;9.33;9.33;;;;;18.70;75.22;100647.72;5120856;27;45466;-68
2022/10/20 02:33:57;;;;;;;;;8.67;7.67;;;;;18.71;75.00;100647.69;5125817;27;45167;-66
2022/10/20 02:36:26;;;;;;;;;6.67;5.00;;;;;18.36;75.07;100554.22;5123104;27;45652;-66
2022/10/20 02:38:52;;;;;;;;;9.00;7.33;;;;;18.68;74.78;100579.19;5125848;27;45042;-66
2022/10/20 02:41:17;;;;;;;;;8.00;8.00;;;;;18.74;74.76;100557.44;5126469;27;45097;-67
2022/10/20 02:43:42;;;;;;;;;10.67;7.00;;;;;18.81;74.61;100552.84;5116013;27;45327;-67
2022/10/20 02:46:07;;;;;;;;;10.00;5.67;;;;;18.83;74.38;100541.16;5121221;27;68658;-66
2022/10/20 02:48:33;;;;;;;;;7.33;6.67;;;;;18.85;74.12;100547.44;5130894;27;45032;-67
2022/10/20 02:50:58;;;;;;;;;9.67;7.67;;;;;18.86;73.86;100545.63;5130820;27;45372;-67
2022/10/20 02:53:23;;;;;;;;;6.67;4.00;;;;;18.89;73.90;100554.63;5131613;27;45323;-66
2022/10/20 02:55:49;;;;;;;;;7.67;6.33;;;;;18.93;73.58;100556.38;5132414;27;45332;-66
2022/10/20 02:58:14;;;;;;;;;5.33;4.33;;;;;18.79;73.45;100521.31;5128787;27;45290;-66
2022/10/20 03:00:39;;;;;;;;;10.00;6.00;;;;;18.97;73.60;100562.63;5117970;27;45187;-66
2022/10/20 03:03:05;;;;;;;;;5.00;5.00;;;;;18.99;72.99;100560.84;5124510;27;45196;-66
2022/10/20 03:05:30;;;;;;;;;7.00;7.00;;;;;19.01;73.07;100567.13;5125766;27;46191;-66
2022/10/20 03:07:56;;;;;;;;;4.33;4.33;;;;;18.90;72.72;100550.09;5128202;27;45415;-67
2022/10/20 03:10:21;;;;;;;;;9.33;5.67;;;;;19.05;72.68;100582.41;5126242;27;45326;-66
2022/10/20 03:12:46;;;;;;;;;10.00;6.67;;;;;19.06;72.42;100589.63;5131625;27;45051;-66
2022/10/20 03:15:12;;;;;;;;;5.00;4.00;;;;;19.12;72.23;100597.69;5127822;27;59257;-65
2022/10/20 03:17:37;;;;;;;;;4.67;4.00;;;;;19.17;72.51;100610.25;5124288;27;45313;-66
2022/10/20 03:20:03;;;;;;;;;5.00;4.00;;;;;19.20;72.25;100607.53;5131530;27;45542;-68
2022/10/20 03:22:29;;;;;;;;;6.33;4.33;;;;;19.26;72.05;100605.63;5133273;27;45308;-66
2022/10/20 03:24:54;;;;;;;;;4.33;4.00;;;;;19.28;72.15;100590.25;5125739;27;45151;-66
2022/10/20 03:27:19;;;;;;;;;7.67;6.00;;;;;19.15;72.01;100550.69;5113406;27;55327;-67
2022/10/20 03:29:45;;;;;;;;;6.00;4.67;;;;;19.41;71.84;100592.84;5127058;27;53946;-67
2022/10/20 03:32:10;;;;;;;;;6.67;5.00;;;;;19.45;71.71;100595.50;5124669;27;45007;-67
2022/10/20 03:34:35;;;;;;;;;4.67;4.67;;;;;19.41;70.85;100599.13;5123847;27;50771;-67
2022/10/20 03:37:01;;;;;;;;;6.00;5.67;;;;;19.35;71.64;100585.66;5128472;27;45254;-68
2022/10/20 03:39:26;;;;;;;;;7.33;5.00;;;;;19.52;71.57;100609.84;5130032;27;45535;-67
2022/10/20 03:41:53;;;;;;;;;6.33;4.00;;;;;19.55;71.29;100607.13;5120818;27;45452;-67
2022/10/20 03:44:18;;;;;;;;;12.33;5.00;;;;;19.57;71.73;100602.56;5110610;27;45664;-67
2022/10/20 03:46:43;;;;;;;;;8.33;7.33;;;;;19.59;71.53;100606.13;5126360;27;64465;-68
2022/10/20 03:49:09;;;;;;;;;9.33;9.33;;;;;19.52;71.66;100599.03;5128980;27;45689;-68
2022/10/20 03:51:34;;;;;;;;;5.00;5.00;;;;;19.64;71.08;100628.66;5122587;27;45289;-66
2022/10/20 03:53:59;;;;;;;;;6.33;5.67;;;;;19.56;71.35;100633.28;5131531;27;54460;-68
2022/10/20 03:56:24;;;;;;;;;8.00;6.00;;;;;19.65;71.78;100643.09;5131786;27;45151;-66
2022/10/20 03:58:50;;;;;;;;;6.67;5.00;;;;;19.68;71.57;100640.34;5120828;27;45334;-66
2022/10/20 04:01:18;;;;;;;;;6.00;4.67;;;;;19.52;71.78;100605.31;5120218;27;45333;-67
2022/10/20 04:03:44;;;;;;;;;4.67;4.67;;;;;19.67;72.40;100636.75;5108023;27;45866;-66
2022/10/20 04:06:13;;;;;;;;;11.00;7.00;;;;;19.67;72.72;100657.56;5127340;27;45172;-66
2022/10/20 04:08:39;;;;;;;;;4.33;4.33;;;;;19.65;72.74;100638.59;5122662;27;45292;-66
2022/10/20 04:11:04;;;;;;;;;5.67;4.67;;;;;19.67;73.05;100619.59;5129656;27;44932;-66
2022/10/20 04:13:30;;;;;;;;;9.67;6.00;;;;;19.64;73.43;100616.94;5125879;27;45801;-66
2022/10/20 04:15:55;;;;;;;;;7.00;5.33;;;;;19.64;73.50;100598.84;5130224;27;45153;-66
2022/10/20 04:18:20;;;;;;;;;10.67;6.33;;;;;19.63;74.22;100590.72;5129037;27;45272;-68
2022/10/20 04:20:48;;;;;;;;;8.67;7.00;;;;;19.63;74.33;100607.91;5130361;27;50288;-67
2022/10/20 04:23:14;;;;;;;;;11.67;7.00;;;;;19.64;73.98;100587.13;5129550;27;54869;-67
2022/10/20 04:25:44;;;;;;;;;11.00;8.67;;;;;19.63;74.52;100597.06;5117453;27;45179;-66
2022/10/20 04:28:13;;;;;;;;;7.67;5.33;;;;;19.63;74.35;100597.06;5125094;27;45228;-65
2022/10/20 04:30:39;;;;;;;;;7.00;3.33;;;;;19.63;74.55;100580.81;5121515;27;45117;-68
2022/10/20 04:33:04;;;;;;;;;9.00;7.00;;;;;19.61;74.40;100577.19;5126113;27;45117;-68
2022/10/20 04:35:29;;;;;;;;;8.67;8.67;;;;;19.58;74.84;100574.53;5124776;27;44974;-66
2022/10/20 04:37:55;;;;;;;;;10.67;9.00;;;;;19.55;75.32;100582.72;5127827;27;45181;-66
2022/10/20 04:40:20;;;;;;;;;9.67;9.67;;;;;19.58;75.23;100598.03;5122998;27;45088;-66
2022/10/20 04:42:45;;;;;;;;;13.67;10.00;;;;;19.57;75.35;100604.34;5114113;27;45725;-67
2022/10/20 04:45:11;;;;;;;;;8.67;5.00;;;;;19.50;75.16;100603.53;5109066;27;48320;-66
2022/10/20 04:47:36;;;;;;;;;5.00;5.00;;;;;19.48;75.62;100602.66;5115222;27;45184;-66
2022/10/20 04:50:02;;;;;;;;;11.33;9.33;;;;;19.45;75.51;100591.88;5117258;27;45205;-67
2022/10/20 04:52:28;;;;;;;;;7.00;7.00;;;;;19.42;75.66;100603.66;5123618;27;47046;-66
2022/10/20 04:54:53;;;;;;;;;9.67;7.00;;;;;19.27;75.88;100568.59;5123444;27;44984;-67
2022/10/20 04:57:19;;;;;;;;;9.00;5.00;;;;;19.42;75.67;100587.41;5129502;27;45008;-66
2022/10/20 04:59:44;;;;;;;;;9.67;7.00;;;;;19.40;75.48;100578.41;5126346;27;45273;-67
2022/10/20 05:02:10;;;;;;;;;7.67;6.00;;;;;19.42;75.70;100581.06;5094014;27;47180;-67
2022/10/20 05:04:35;;;;;;;;;6.33;6.00;;;;;19.23;75.73;100556.03;5106814;27;45233;-66
2022/10/20 05:07:01;;;;;;;;;10.33;7.00;;;;;19.40;75.81;100604.56;5111913;27;45019;-67
2022/10/20 05:09:26;;;;;;;;;9.67;9.67;;;;;19.37;75.99;100599.19;5127420;27;45177;-69
2022/10/20 05:11:52;;;;;;;;;8.00;7.00;;;;;19.32;75.84;100607.41;5106900;27;45396;-67
2022/10/20 05:14:18;;;;;;;;;6.00;5.00;;;;;19.25;75.66;100614.66;5106891;27;45159;-67
2022/10/20 05:16:43;;;;;;;;;5.00;5.00;;;;;19.13;76.26;100609.41;5110872;27;45621;-68
2022/10/20 05:19:09;;;;;;;;;7.33;6.00;;;;;19.11;76.54;100616.66;5118333;27;45428;-66
2022/10/20 05:21:36;;;;;;;;;6.67;5.33;;;;;19.15;76.38;100629.25;5104349;27;46536;-67
2022/10/20 05:24:04;;;;;;;;;10.67;8.00;;;;;19.17;76.94;100613.84;5108422;27;45132;-67
2022/10/20 05:26:33;;;;;;;;;15.67;9.00;;;;;18.83;76.98;100554.69;5105810;27;46602;-67
2022/10/20 05:29:00;;;;;;;;;6.67;6.67;;;;;18.91;76.64;100585.28;5101759;27;45460;-67
2022/10/20 05:31:26;;;;;;;;;12.00;7.67;;;;;19.00;76.83;100605.03;5115629;27;46106;-69
2022/10/20 05:33:54;;;;;;;;;6.67;5.00;;;;;19.19;76.69;100633.72;5116947;27;45443;-67
2022/10/20 05:36:24;;;;;;;;;10.67;9.33;;;;;19.21;76.82;100634.59;5101746;27;45715;-70
2022/10/20 05:38:52;;;;;;;;;8.67;8.33;;;;;19.15;76.18;100626.53;5121423;27;45209;-67
2022/10/20 05:41:23;;;;;;;;;11.00;7.00;;;;;19.18;76.30;100639.16;5102857;27;46493;-68
2022/10/20 05:43:50;;;;;;;;;7.33;7.33;;;;;19.19;76.13;100631.00;5113013;27;45247;-67
2022/10/20 05:46:16;;;;;;;;;6.33;6.33;;;;;19.19;76.15;100628.31;5119567;27;45389;-66
2022/10/20 05:48:42;;;;;;;;;10.00;5.33;;;;;19.17;75.77;100635.53;5127927;27;45136;-67
2022/10/20 05:51:14;;;;;;;;;10.67;8.67;;;;;19.11;75.79;100608.53;5112611;27;45553;-66
2022/10/20 05:53:40;;;;;;;;;9.33;7.67;;;;;19.11;75.92;100619.38;5115726;27;45063;-67
2022/10/20 05:56:07;;;;;;;;;11.33;8.67;;;;;19.09;75.41;100604.94;5125520;27;45231;-68
2022/10/20 05:58:33;;;;;;;;;7.00;5.67;;;;;19.08;75.22;100613.97;5121289;27;45063;-67
2022/10/20 06:01:05;;;;;;;;;13.00;9.00;;;;;19.03;75.07;100607.72;5110024;27;64780;-67
2022/10/20 06:03:30;;;;;;;;;14.67;8.67;;;;;19.01;75.21;100617.69;5110831;27;45163;-69
2022/10/20 06:05:57;;;;;;;;;5.00;5.00;;;;;18.90;74.67;100594.28;5119277;27;45115;-67
2022/10/20 06:08:22;;;;;;;;;8.00;6.33;;;;;18.92;75.05;100586.16;5112176;27;45052;-67
2022/10/20 06:10:47;;;;;;;;;7.00;6.00;;;;;18.91;74.94;100570.84;5116158;27;45468;-69
2022/10/20 06:13:13;;;;;;;;;6.33;4.67;;;;;18.87;74.72;100550.13;5125768;27;54592;-68
2022/10/20 06:15:38;;;;;;;;;6.00;6.00;;;;;18.96;74.36;100536.50;5127166;27;57442;-69
2022/10/20 06:18:03;;;;;;;;;7.00;5.00;;;;;18.75;74.08;100502.41;5129636;27;50004;-69
2022/10/20 06:20:28;;;;;;;;;2.00;2.00;;;;;18.90;74.29;100499.53;5128605;27;66267;-67
2022/10/20 06:22:54;;;;;;;;;12.33;7.33;;;;;18.82;74.57;100477.06;5125694;27;47116;-69
2022/10/20 06:25:19;;;;;;;;;8.33;5.67;;;;;18.91;74.59;100501.34;5126018;27;56083;-67
2022/10/20 06:27:44;;;;;;;;;7.00;6.00;;;;;18.88;74.66;100490.56;5121704;27;45260;-67
2022/10/20 06:30:10;;;;;;;;;5.00;4.00;;;;;18.84;74.55;100483.41;5125654;27;61773;-67
2022/10/20 06:32:35;;;;;;;;;6.33;6.00;;;;;18.76;74.57;100483.44;5116337;27;45475;-69
2022/10/20 06:35:01;;;;;;;;;4.67;4.67;;;;;18.59;74.58;100464.72;5113748;27;45241;-67
2022/10/20 06:37:26;;;;;;;;;9.33;5.00;;;;;18.71;74.76;100489.81;5120917;27;45108;-68
2022/10/20 06:39:51;;;;;;;;;11.67;11.67;;;;;18.70;74.87;100482.63;5132669;27;57916;-67
2022/10/20 06:42:16;;;;;;;;;6.00;4.67;;;;;18.67;75.28;100483.53;5118356;27;62033;-68
2022/10/20 06:44:42;;;;;;;;;5.33;5.00;;;;;18.53;75.15;100462.06;5115659;27;46682;-67
2022/10/20 06:47:09;;;;;;;;;9.00;7.00;;;;;18.52;75.31;100468.38;5125880;27;48111;-69
2022/10/20 06:49:34;;;;;;;;;7.33;7.00;;;;;18.57;76.14;100504.38;5108302;27;46034;-67
2022/10/20 06:51:59;;;;;;;;;10.67;7.00;;;;;18.49;76.02;100500.88;5131864;27;44908;-68
2022/10/20 06:54:25;;;;;;;;;11.33;6.67;;;;;18.48;76.15;100520.75;5120777;27;45044;-68
2022/10/20 06:56:50;;;;;;;;;10.33;10.00;;;;;18.54;76.54;100544.13;5132889;27;44975;-67
2022/10/20 06:59:15;;;;;;;;;7.67;6.67;;;;;18.56;76.51;100556.72;5131454;27;64217;-66
2022/10/20 07:01:41;;;;;;;;;13.00;9.67;;;;;18.59;76.49;100574.72;5115455;27;46808;-66
2022/10/20 07:04:10;;;;;;;;;10.00;8.33;;;;;18.51;75.76;100572.13;5125412;27;45721;-67
2022/10/20 07:06:41;;;;;;;;;15.00;12.67;;;;;18.20;76.23;100521.00;5117550;27;46580;-65
2022/10/20 07:09:10;;;;;;;;;12.67;10.33;;;;;18.48;76.05;100572.13;5129140;27;45588;-66
2022/10/20 07:11:36;;;;;;;;;13.00;9.67;;;;;18.56;75.67;100599.09;5113521;27;45322;-67
2022/10/20 07:14:02;;;;;;;;;6.67;6.67;;;;;18.59;75.70;100605.41;5123688;27;45107;-66
2022/10/20 07:16:30;;;;;;;;;8.00;6.33;;;;;18.45;75.48;100579.38;5106032;27;45281;-67
2022/10/20 07:18:56;;;;;;;;;9.00;5.00;;;;;18.57;75.28;100617.16;5116826;27;45207;-68
2022/10/20 07:21:27;;;;;;;;;6.00;6.00;;;;;18.51;75.68;100603.66;5111365;27;45634;-67
2022/10/20 07:23:55;;;;;;;;;11.33;8.00;;;;;18.54;75.61;100615.34;5108094;27;45150;-67
2022/10/20 07:26:32;;;;;;;;;3.00;3.00;;;;;18.50;75.03;100613.59;5119853;27;45040;-67
2022/10/20 07:28:59;;;;;;;;;10.33;7.67;;;;;18.49;75.26;100619.00;5122097;27;46268;-67
2022/10/20 07:31:31;;;;;;;;;13.67;9.00;;;;;18.50;75.33;100616.28;5115113;27;45049;-67
2022/10/20 07:34:00;;;;;;;;;7.67;7.67;;;;;18.51;74.76;100628.00;5109661;27;45425;-67
2022/10/20 07:36:28;;;;;;;;;16.33;10.67;;;;;18.48;74.49;100623.53;5117881;27;45197;-67
2022/10/20 07:38:56;;;;;;;;;8.67;5.33;;;;;18.49;74.63;100624.44;5110939;27;45314;-68
2022/10/20 07:41:22;;;;;;;;;10.67;9.00;;;;;18.48;74.91;100633.44;5111958;27;45627;-67
2022/10/20 07:43:48;;;;;;;;;7.00;5.33;;;;;18.48;74.72;100622.63;5109634;27;45303;-68
2022/10/20 07:46:14;;;;;;;;;7.33;4.00;;;;;18.50;74.78;100626.22;5104284;27;46159;-66
2022/10/20 07:48:40;;;;;;;;;12.00;10.67;;;;;18.51;75.11;100618.09;5098950;27;46026;-66
2022/10/20 07:51:21;;;;;;;;;8.00;7.67;;;;;18.53;74.60;100624.41;5116188;27;45176;-66
2022/10/20 07:53:47;;;;;;;;;8.67;8.67;;;;;18.55;74.58;100619.84;5124908;27;45186;-66
2022/10/20 07:56:13;;;;;;;;;8.00;7.00;;;;;18.48;74.46;100612.72;5118014;27;45137;-66
2022/10/20 07:58:39;;;;;;;;;10.33;8.00;;;;;18.50;74.78;100602.78;5094977;27;46730;-67
2022/10/20 08:01:05;;;;;;;;;4.33;3.33;;;;;18.62;74.63;100619.81;5116429;27;45114;-66
2022/10/20 08:03:31;;;;;;;;;6.67;6.67;;;;;18.64;74.42;100620.69;5131830;27;45077;-67
2022/10/20 08:05:56;;;;;;;;;8.00;6.33;;;;;18.65;74.32;100615.25;5122336;27;44977;-67
2022/10/20 08:08:22;;;;;;;;;10.33;6.33;;;;;18.65;74.60;100617.97;5094076;27;45903;-67
2022/10/20 08:10:47;;;;;;;;;7.00;6.00;;;;;18.67;74.45;100612.53;5110924;27;45210;-68
2022/10/20 08:13:12;;;;;;;;;9.67;4.67;;;;;18.66;74.32;100598.13;5116053;27;45255;-67
2022/10/20 08:15:38;;;;;;;;;10.33;5.33;;;;;18.41;74.17;100551.44;5116719;27;45303;-67
2022/10/20 08:18:03;;;;;;;;;6.67;6.67;;;;;18.84;74.28;100607.00;5118345;27;45549;-67
2022/10/20 08:20:29;;;;;;;;;11.00;8.00;;;;;18.94;74.15;100608.69;5121052;27;45046;-66
2022/10/20 08:22:54;;;;;;;;;5.67;5.00;;;;;18.97;73.04;100603.25;5121493;27;45152;-67
2022/10/20 08:25:20;;;;;;;;;6.00;6.00;;;;;19.01;72.33;100604.13;5130688;27;53108;-67
2022/10/20 08:27:45;;;;;;;;;8.00;5.33;;;;;19.04;72.60;100595.97;5117396;27;45629;-67
2022/10/20 08:30:10;;;;;;;;;8.00;5.00;;;;;18.92;71.89;100575.34;5121216;27;45084;-66
2022/10/20 08:32:36;;;;;;;;;3.00;3.00;;;;;19.06;71.61;100599.56;5130480;27;45095;-66
2022/10/20 08:35:02;;;;;;;;;5.33;5.33;;;;;19.15;71.66;100615.69;5122720;27;45154;-66
2022/10/20 08:37:31;;;;;;;;;5.67;5.67;;;;;19.16;71.30;100620.22;5117843;27;46407;-66
2022/10/20 08:39:56;;;;;;;;;6.33;4.33;;;;;19.18;70.64;100618.38;5121967;27;45004;-67
2022/10/20 08:42:22;;;;;;;;;5.00;3.00;;;;;19.18;71.25;100618.38;5117973;27;50331;-67
2022/10/20 08:44:49;;;;;;;;;9.00;7.33;;;;;19.21;70.69;100612.94;5104936;27;45004;-67
2022/10/20 08:47:25;;;;;;;;;9.00;7.67;;;;;19.24;70.51;100618.31;5117240;27;45747;-67
2022/10/20 08:49:50;;;;;;;;;4.33;4.00;;;;;19.21;70.59;100614.75;5124027;27;44874;-67
2022/10/20 08:52:17;;;;;;;;;3.67;3.00;;;;;19.26;70.46;100623.72;5127184;27;45242;-68
2022/10/20 08:54:42;;;;;;;;;2.00;2.00;;;;;19.25;70.43;100624.63;5126758;27;45133;-66
2022/10/20 08:57:21;;;;;;;;;8.50;6.00;;;;;19.29;70.63;100627.28;5128934;27;45796;-67
2022/10/20 08:59:50;;;;;;;;;13.00;12.33;;;;;19.38;70.89;100619.97;5131069;27;45173;-66
2022/10/20 09:02:16;;;;;;;;;7.00;7.00;;;;;19.43;69.97;100620.81;5115771;27;45045;-67
2022/10/20 09:04:53;;;;;;;;;3.33;3.00;;;;;19.44;70.07;100623.50;5119683;27;44909;-68
2022/10/20 09:07:26;;;;;;;;;4.67;4.67;;;;;19.47;69.58;100622.56;5105364;27;47269;-67
2022/10/20 09:10:11;;;;;;;;;7.67;5.67;;;;;19.50;69.76;100619.78;5124090;27;45073;-68
2022/10/20 09:12:40;;;;;;;;;8.33;6.00;;;;;19.52;69.88;100615.28;5113568;27;45045;-68
2022/10/20 09:15:10;;;;;;;;;5.67;4.67;;;;;19.50;69.63;100603.53;5120820;27;45233;-67
2022/10/20 09:17:35;;;;;;;;;9.00;5.67;;;;;19.69;69.64;100618.66;5127472;27;45067;-67
2022/10/20 09:20:02;;;;;;;;;5.00;5.00;;;;;19.73;68.85;100607.75;5128856;27;45378;-67
2022/10/20 09:22:29;;;;;;;;;7.00;6.00;;;;;19.88;68.74;100603.06;5132007;27;45123;-68
2022/10/20 09:24:56;;;;;;;;;11.67;8.67;;;;;20.00;68.22;100617.38;5120816;27;45133;-67
2022/10/20 09:27:23;;;;;;;;;8.67;5.33;;;;;20.06;68.28;100615.47;5105828;27;45213;-66
2022/10/20 09:29:49;;;;;;;;;7.00;6.00;;;;;20.07;67.71;100603.69;5125944;27;45282;-67
2022/10/20 09:32:39;;;;;;;;;6.00;4.67;;;;;20.10;67.61;100597.31;5122168;27;45014;-67
2022/10/20 09:35:17;;;;;;;;;6.00;5.00;;;;;20.19;67.33;100610.72;5111408;27;44959;-66
2022/10/20 09:37:50;;;;;;;;;6.33;5.67;;;;;20.15;66.56;100613.53;5125953;27;46670;-66
2022/10/20 09:40:17;;;;;;;;;4.00;4.00;;;;;20.15;65.55;100594.56;5128600;27;45050;-67
2022/10/20 09:42:53;;;;;;;;;4.00;2.67;;;;;20.18;66.06;100597.22;5123016;27;45190;-67
2022/10/20 09:45:28;;;;;;;;;6.00;6.00;;;;;20.23;65.94;100595.31;5117123;27;44996;-67
2022/10/20 09:48:20;;;;;;;;;6.00;5.67;;;;;20.29;65.76;100599.75;5124452;27;45290;-69
2022/10/20 09:50:50;;;;;;;;;5.33;4.33;;;;;20.33;65.50;100596.06;5121147;27;45282;-66
2022/10/20 09:53:19;;;;;;;;;3.67;3.67;;;;;20.36;65.18;100606.84;5123119;27;45037;-68
2022/10/20 09:55:48;;;;;;;;;3.00;3.00;;;;;20.38;65.26;100608.63;5131285;27;45230;-67
2022/10/20 09:58:26;;;;;;;;;5.00;4.00;;;;;20.24;65.02;100588.97;5132950;27;45686;-67
2022/10/20 10:01:17;;;;;;;;;7.00;6.33;;;;;20.47;65.56;100603.97;5133048;27;45424;-67
2022/10/20 10:03:45;;;;;;;;;4.00;4.00;;;;;20.52;64.42;100600.25;5124347;27;45131;-67
2022/10/20 10:06:38;;;;;;;;;5.00;5.00;;;;;20.56;64.45;100611.97;5127758;27;45048;-67
2022/10/20 10:09:23;;;;;;;;;3.33;3.00;;;;;20.60;63.96;100594.69;5123201;27;45195;-67
2022/10/20 10:12:14;;;;;;;;;8.33;6.33;;;;;20.68;64.23;100592.78;5123934;27;45292;-67
2022/10/20 10:14:51;;;;;;;;;5.00;5.00;;;;;20.78;63.24;100593.50;5119977;27;45570;-66
2022/10/20 10:17:37;;;;;;;;;7.00;5.00;;;;;20.87;63.23;100589.72;5117118;27;45150;-67
2022/10/20 10:20:23;;;;;;;;;5.33;5.33;;;;;20.83;62.99;100564.44;5129867;27;45172;-67
2022/10/20 10:22:48;;;;;;;;;3.00;1.33;;;;;20.90;61.60;100582.41;5123338;27;45143;-66
2022/10/20 10:25:18;;;;;;;;;5.33;3.00;;;;;20.91;62.31;100581.50;5119644;27;45399;-66
2022/10/20 10:28:19;;;;;;;;;7.00;5.00;;;;;20.90;61.73;100586.94;5120622;27;46524;-67
2022/10/20 10:30:44;;;;;;;;;8.00;4.00;;;;;20.75;61.83;100552.84;5123828;27;46039;-67
2022/10/20 10:33:25;;;;;;;;;3.00;3.00;;;;;20.82;61.23;100564.47;5131585;27;45328;-67
2022/10/20 10:35:51;;;;;;;;;5.33;2.33;;;;;20.86;61.55;100558.97;5110564;27;45160;-67
2022/10/20 10:38:16;;;;;;;;;4.00;4.00;;;;;20.91;61.07;100576.06;5125953;27;45140;-67
2022/10/20 10:40:56;;;;;;;;;3.33;3.33;;;;;20.94;60.68;100569.69;5128564;27;45590;-67
2022/10/20 10:43:43;;;;;;;;;7.00;5.00;;;;;20.96;60.63;100571.44;5127891;27;45140;-67
2022/10/20 10:46:19;;;;;;;;;9.67;5.00;;;;;20.99;61.15;100568.66;5097255;27;45032;-67
2022/10/20 10:48:44;;;;;;;;;8.00;6.00;;;;;21.01;60.69;100563.19;5119696;27;45058;-67
2022/10/20 10:51:22;;;;;;;;;4.33;4.33;;;;;21.01;60.32;100573.19;5119143;27;45811;-66
2022/10/20 10:54:07;;;;;;;;;4.00;3.00;;;;;21.01;59.16;100559.59;5114329;27;45079;-67
2022/10/20 10:56:55;;;;;;;;;4.33;2.00;;;;;21.03;59.37;100549.59;5091040;27;45215;-67
2022/10/20 10:59:26;;;;;;;;;4.33;3.00;;;;;21.13;59.13;100543.03;5117899;27;45172;-66
2022/10/20 11:02:21;;;;;;;;;4.67;1.67;;;;;21.07;58.11;100513.28;5096421;27;46134;-67
2022/10/20 11:05:08;;;;;;;;;8.00;3.00;;;;;21.33;57.98;100543.53;5115795;27;45229;-67
2022/10/20 11:07:49;;;;;;;;;4.67;1.33;;;;;21.38;57.50;100540.69;5116495;27;45128;-67
2022/10/20 11:10:37;;;;;;;;;2.00;2.00;;;;;21.34;57.11;100541.69;5118411;27;45228;-66
2022/10/20 11:13:09;;;;;;;;;4.00;3.00;;;;;21.34;57.07;100531.72;5114764;27;45224;-67
2022/10/20 11:15:43;;;;;;;;;4.00;3.00;;;;;21.36;56.35;100528.97;5119214;27;45170;-67
2022/10/20 11:18:14;;;;;;;;;5.67;4.00;;;;;21.41;56.78;100529.75;5117993;27;45108;-67
2022/10/20 11:20:51;;;;;;;;;4.67;3.33;;;;;21.45;56.63;100520.63;5113535;27;45199;-67
2022/10/20 11:23:31;;;;;;;;;1.67;1.67;;;;;21.49;56.31;100514.22;5121810;27;45305;-67
2022/10/20 11:26:02;;;;;;;;;4.00;2.00;;;;;21.56;56.64;100514.06;5114848;27;45261;-67
2022/10/20 11:28:43;;;;;;;;;3.00;3.00;;;;;21.63;56.04;100521.16;5123045;27;45193;-67
2022/10/20 11:31:35;;;;;;;;;3.33;3.00;;;;;21.52;55.81;100486.06;5110661;27;45182;-67
2022/10/20 11:34:16;;;;;;;;;7.33;5.00;;;;;21.70;55.39;100515.53;5112109;27;45749;-67